Time;durP1;ratioP1;P1;durP2;ratioP2;P2;SDS_P1;SDS_P2;PMS_P1;PMS_P2;Temp;Humidity;BMP_temperature;BMP_pressure;BME280_temperature;BME280_humidity;BME280_pressure;Samples;Min_cycle;Max_cycle;Signal;HPM_P1;HPM_P2
2022/12/28 00:02:23;;;;;;;2.42;0.40;;;;;;;;;;6036955;23;20033;-63
2022/12/28 00:04:51;;;;;;;2.00;0.30;;;;;;;;;;6072959;23;20093;-59
2022/12/28 00:07:22;;;;;;;2.85;0.40;;;;;;;;;;6065824;23;20093;-63
2022/12/28 00:09:49;;;;;;;1.95;0.30;;;;;;;;;;6071768;23;20018;-64
2022/12/28 00:12:18;;;;;;;2.15;0.40;;;;;;;;;;6063695;23;20110;-63
2022/12/28 00:14:46;;;;;;;2.15;0.40;;;;;;;;;;6073663;23;20037;-63
2022/12/28 00:17:13;;;;;;;2.97;0.60;;;;;;;;;;6062510;23;20069;-63
2022/12/28 00:19:41;;;;;;;2.75;0.30;;;;;;;;;;6074314;23;20098;-63
2022/12/28 00:22:09;;;;;;;2.65;0.30;;;;;;;;;;6059447;23;20134;-64
2022/12/28 00:24:36;;;;;;;1.65;0.20;;;;;;;;;;6070440;23;20096;-64
2022/12/28 00:27:04;;;;;;;3.90;0.38;;;;;;;;;;6069358;23;20022;-63
2022/12/28 00:29:33;;;;;;;2.43;0.30;;;;;;;;;;6043633;23;20107;-63
2022/12/28 00:32:01;;;;;;;3.42;0.30;;;;;;;;;;6063422;23;20050;-64
2022/12/28 00:34:28;;;;;;;1.90;0.30;;;;;;;;;;6071135;23;20065;-63
2022/12/28 00:36:56;;;;;;;3.55;0.30;;;;;;;;;;6064584;23;20014;-63
2022/12/28 00:39:39;;;;;;;2.88;0.20;;;;;;;;;;6064609;23;20271;-64
2022/12/28 00:42:06;;;;;;;4.67;0.40;;;;;;;;;;6070246;23;20507;-63
2022/12/28 00:44:39;;;;;;;2.88;0.32;;;;;;;;;;6069572;23;20457;-63
2022/12/28 00:47:07;;;;;;;2.92;0.50;;;;;;;;;;6070692;23;20018;-63
2022/12/28 00:49:34;;;;;;;8.00;0.50;;;;;;;;;;6063093;23;20018;-63
2022/12/28 00:52:02;;;;;;;3.97;0.50;;;;;;;;;;6071702;23;20454;-64
2022/12/28 00:54:29;;;;;;;2.50;0.37;;;;;;;;;;6064638;23;20018;-63
2022/12/28 00:56:57;;;;;;;3.83;0.60;;;;;;;;;;6041608;23;20414;-64
2022/12/28 00:59:25;;;;;;;3.35;0.35;;;;;;;;;;6057386;23;20575;-63
2022/12/28 01:01:53;;;;;;;4.03;0.55;;;;;;;;;;6070490;23;20018;-63
2022/12/28 01:04:21;;;;;;;6.32;0.60;;;;;;;;;;6061027;23;20097;-63
2022/12/28 01:06:49;;;;;;;2.50;0.43;;;;;;;;;;6071028;23;20014;-63
2022/12/28 01:09:16;;;;;;;4.32;0.57;;;;;;;;;;6060849;23;20516;-63
2022/12/28 01:11:44;;;;;;;7.10;0.40;;;;;;;;;;6066243;23;20018;-63
2022/12/28 01:14:12;;;;;;;4.00;0.50;;;;;;;;;;6067076;23;20101;-63
2022/12/28 01:16:39;;;;;;;7.75;0.80;;;;;;;;;;6072853;23;20022;-63
2022/12/28 01:19:11;;;;;;;4.13;0.50;;;;;;;;;;6061974;23;20037;-63
2022/12/28 01:21:39;;;;;;;4.95;0.40;;;;;;;;;;6073679;23;20041;-63
2022/12/28 01:24:08;;;;;;;5.03;0.40;;;;;;;;;;6062450;23;20101;-63
2022/12/28 01:26:38;;;;;;;4.85;0.40;;;;;;;;;;6070949;23;20018;-63
2022/12/28 01:29:06;;;;;;;9.25;0.63;;;;;;;;;;6056997;23;20331;-64
2022/12/28 01:31:34;;;;;;;4.27;0.30;;;;;;;;;;6068785;23;20021;-64
2022/12/28 01:34:02;;;;;;;5.15;0.60;;;;;;;;;;6036353;23;20023;-64
2022/12/28 01:36:34;;;;;;;4.60;0.50;;;;;;;;;;6037776;23;20045;-63
2022/12/28 01:39:03;;;;;;;3.08;0.40;;;;;;;;;;6073270;23;20026;-63
2022/12/28 01:41:32;;;;;;;4.22;0.40;;;;;;;;;;6069538;23;20447;-64
2022/12/28 01:44:18;;;;;;;5.10;0.37;;;;;;;;;;6065483;23;20244;-63
2022/12/28 01:46:48;;;;;;;2.40;0.30;;;;;;;;;;6057842;23;20015;-63
2022/12/28 01:49:18;;;;;;;3.25;0.45;;;;;;;;;;6070792;23;20631;-63
2022/12/28 01:51:48;;;;;;;2.20;0.40;;;;;;;;;;6063328;23;20059;-64
2022/12/28 01:54:18;;;;;;;7.78;0.77;;;;;;;;;;6064597;23;20060;-63
2022/12/28 01:56:49;;;;;;;3.67;0.40;;;;;;;;;;6072897;23;20025;-64
2022/12/28 01:59:17;;;;;;;2.08;0.30;;;;;;;;;;6062984;23;20053;-63
2022/12/28 02:01:45;;;;;;;5.80;0.38;;;;;;;;;;6069806;23;20034;-63
2022/12/28 02:04:13;;;;;;;3.00;0.28;;;;;;;;;;6060971;23;20588;-63
2022/12/28 02:06:41;;;;;;;6.20;0.43;;;;;;;;;;6070366;23;20390;-63
2022/12/28 02:09:14;;;;;;;1.90;0.30;;;;;;;;;;6061962;23;20077;-63
2022/12/28 02:11:41;;;;;;;4.75;0.80;;;;;;;;;;6073721;23;20042;-63
2022/12/28 02:14:10;;;;;;;1.67;0.30;;;;;;;;;;6060843;23;20018;-63
2022/12/28 02:16:38;;;;;;;4.60;0.28;;;;;;;;;;6070516;23;20097;-63
2022/12/28 02:19:07;;;;;;;4.60;0.35;;;;;;;;;;6062147;23;20023;-63
2022/12/28 02:21:47;;;;;;;6.03;0.40;;;;;;;;;;6072862;23;20054;-63
2022/12/28 02:24:36;;;;;;;2.53;0.22;;;;;;;;;;6067032;23;20513;-63
2022/12/28 02:27:09;;;;;;;4.97;0.40;;;;;;;;;;6064775;23;20363;-63
2022/12/28 02:29:51;;;;;;;4.45;0.40;;;;;;;;;;6043522;23;20093;-63
2022/12/28 02:32:29;;;;;;;2.55;0.60;;;;;;;;;;6060682;23;20102;-63
2022/12/28 02:35:00;;;;;;;5.20;0.47;;;;;;;;;;6067011;23;20090;-63
2022/12/28 02:37:30;;;;;;;4.93;0.30;;;;;;;;;;6067750;23;20586;-63
2022/12/28 02:40:01;;;;;;;2.80;0.40;;;;;;;;;;6074710;23;20273;-63
2022/12/28 02:42:34;;;;;;;5.78;0.40;;;;;;;;;;6076717;23;20430;-63
2022/12/28 02:50:37;;;;;;;3.67;0.38;;;;;;;;;;6062169;23;20516;-64
2022/12/28 02:53:29;;;;;;;4.30;0.40;;;;;;;;;;6047350;23;20010;-64
2022/12/28 02:56:07;;;;;;;4.60;0.20;;;;;;;;;;6061767;23;20488;-65
2022/12/28 02:58:53;;;;;;;3.97;0.25;;;;;;;;;;6067135;23;20518;-63
2022/12/28 03:01:32;;;;;;;3.00;0.40;;;;;;;;;;6072566;23;20393;-64
2022/12/28 03:04:05;;;;;;;2.78;0.38;;;;;;;;;;6059134;23;20465;-64
2022/12/28 03:09:28;;;;;;;3.67;0.40;;;;;;;;;;6066863;23;20046;-64
2022/12/28 03:11:58;;;;;;;4.13;0.40;;;;;;;;;;6066997;23;20339;-63
2022/12/28 03:14:28;;;;;;;2.53;0.30;;;;;;;;;;6069151;23;20015;-63
2022/12/28 03:31:06;;;;;;;2.60;0.40;;;;;;;;;;6069459;23;20361;-64
2022/12/28 03:33:34;;;;;;;2.25;0.30;;;;;;;;;;6065676;23;20056;-63
2022/12/28 03:36:08;;;;;;;2.60;0.40;;;;;;;;;;6075188;23;20050;-64
2022/12/28 03:38:38;;;;;;;1.98;0.20;;;;;;;;;;6061093;23;20048;-63
2022/12/28 03:41:08;;;;;;;6.27;0.60;;;;;;;;;;6044909;23;20094;-64
2022/12/28 03:43:40;;;;;;;3.35;0.50;;;;;;;;;;6071543;23;20089;-63
2022/12/28 03:46:14;;;;;;;2.10;0.30;;;;;;;;;;6071162;23;20395;-64
2022/12/28 03:48:43;;;;;;;2.17;0.30;;;;;;;;;;6071303;23;20029;-64
2022/12/28 03:51:13;;;;;;;3.10;0.30;;;;;;;;;;6063896;23;20034;-63
2022/12/28 03:53:41;;;;;;;3.07;0.30;;;;;;;;;;6073589;23;20098;-61
2022/12/28 03:56:10;;;;;;;2.30;0.40;;;;;;;;;;6062530;23;20216;-64
2022/12/28 03:58:37;;;;;;;4.55;1.25;;;;;;;;;;6070272;23;20057;-64
2022/12/28 04:01:05;;;;;;;2.90;0.40;;;;;;;;;;6063167;23;20046;-64
2022/12/28 04:03:33;;;;;;;3.40;1.02;;;;;;;;;;6075060;23;20093;-63
2022/12/28 04:06:01;;;;;;;4.23;0.57;;;;;;;;;;6034943;23;20465;-60
2022/12/28 04:08:32;;;;;;;5.72;0.80;;;;;;;;;;6068217;23;20026;-63
2022/12/28 04:11:00;;;;;;;3.15;0.75;;;;;;;;;;6069172;23;20511;-60
2022/12/28 04:13:28;;;;;;;5.63;0.90;;;;;;;;;;6069339;23;20046;-60
2022/12/28 04:16:00;;;;;;;7.20;1.38;;;;;;;;;;6077023;23;20046;-64
2022/12/28 04:18:30;;;;;;;5.00;0.90;;;;;;;;;;6048605;23;20463;-64
2022/12/28 04:20:57;;;;;;;4.55;0.90;;;;;;;;;;6066692;23;20069;-64
2022/12/28 04:23:25;;;;;;;4.50;0.80;;;;;;;;;;6066827;23;20046;-60
2022/12/28 04:25:58;;;;;;;5.60;0.95;;;;;;;;;;6069108;23;20046;-60
2022/12/28 04:28:25;;;;;;;4.28;1.00;;;;;;;;;;6070777;23;20018;-60
2022/12/28 04:30:53;;;;;;;3.10;0.63;;;;;;;;;;6038998;23;20018;-60
2022/12/28 04:33:22;;;;;;;3.72;0.90;;;;;;;;;;6070088;23;20485;-60
2022/12/28 04:35:49;;;;;;;3.88;0.80;;;;;;;;;;6049986;23;20582;-60
2022/12/28 04:38:17;;;;;;;5.05;1.10;;;;;;;;;;6038726;23;20018;-61
2022/12/28 04:40:45;;;;;;;4.72;1.20;;;;;;;;;;6071304;23;20114;-64
2022/12/28 04:43:14;;;;;;;4.27;0.80;;;;;;;;;;6067796;23;20081;-63
2022/12/28 04:45:41;;;;;;;4.78;0.90;;;;;;;;;;6067176;23;20014;-64
2022/12/28 04:48:09;;;;;;;4.40;0.70;;;;;;;;;;6070058;23;20010;-65
2022/12/28 04:50:36;;;;;;;4.20;0.70;;;;;;;;;;6059972;23;20068;-64
2022/12/28 04:53:04;;;;;;;4.80;1.00;;;;;;;;;;6077768;23;20194;-65
2022/12/28 04:55:33;;;;;;;4.20;0.87;;;;;;;;;;6065504;23;20291;-64
2022/12/28 04:58:01;;;;;;;4.00;0.93;;;;;;;;;;6051120;23;20062;-61
2022/12/28 05:00:31;;;;;;;4.57;0.60;;;;;;;;;;6057862;23;20054;-65
2022/12/28 05:02:59;;;;;;;3.72;0.60;;;;;;;;;;6070577;23;20065;-65
2022/12/28 05:05:27;;;;;;;3.28;0.77;;;;;;;;;;6070776;23;20042;-64
2022/12/28 05:07:59;;;;;;;2.43;0.30;;;;;;;;;;6071401;23;20022;-64
2022/12/28 05:10:27;;;;;;;4.13;0.30;;;;;;;;;;6072291;23;20028;-65
2022/12/28 05:12:56;;;;;;;2.97;0.43;;;;;;;;;;6057333;23;20049;-64
2022/12/28 05:15:24;;;;;;;2.65;0.25;;;;;;;;;;6074564;23;20054;-64
2022/12/28 05:17:54;;;;;;;2.67;0.22;;;;;;;;;;6060752;23;20532;-64
2022/12/28 05:20:21;;;;;;;3.40;0.30;;;;;;;;;;6074374;23;20072;-66
2022/12/28 05:22:49;;;;;;;2.30;0.40;;;;;;;;;;6062398;23;20068;-65
2022/12/28 05:25:16;;;;;;;2.85;0.40;;;;;;;;;;6071065;23;20022;-65
2022/12/28 05:27:47;;;;;;;3.63;0.47;;;;;;;;;;6070475;23;20093;-65
2022/12/28 05:30:15;;;;;;;5.63;0.50;;;;;;;;;;6063229;23;20038;-66
2022/12/28 05:32:42;;;;;;;2.63;0.40;;;;;;;;;;6071869;23;20453;-65
2022/12/28 05:35:11;;;;;;;3.95;0.50;;;;;;;;;;6062318;23;20041;-65
2022/12/28 05:37:39;;;;;;;2.30;0.30;;;;;;;;;;6066722;23;20093;-62
2022/12/28 05:40:07;;;;;;;2.40;0.40;;;;;;;;;;6062183;23;20258;-65
2022/12/28 05:42:35;;;;;;;2.22;0.38;;;;;;;;;;6072923;23;20355;-66
2022/12/28 05:45:03;;;;;;;1.40;0.20;;;;;;;;;;6037109;23;20041;-65
2022/12/28 05:47:30;;;;;;;1.88;0.30;;;;;;;;;;6042131;23;20433;-66
2022/12/28 05:49:58;;;;;;;2.65;0.20;;;;;;;;;;6071047;23;20089;-65
2022/12/28 05:52:29;;;;;;;1.75;0.20;;;;;;;;;;6065927;23;20549;-66
2022/12/28 05:54:56;;;;;;;1.63;0.20;;;;;;;;;;6055689;23;20386;-65
2022/12/28 05:57:27;;;;;;;1.83;0.30;;;;;;;;;;6065424;23;20101;-65
2022/12/28 05:59:56;;;;;;;1.58;0.28;;;;;;;;;;6041882;23;20128;-65
2022/12/28 06:02:26;;;;;;;2.67;0.30;;;;;;;;;;6071835;23;20014;-65
2022/12/28 06:04:54;;;;;;;3.60;0.30;;;;;;;;;;6070047;23;20094;-65
2022/12/28 06:07:21;;;;;;;1.70;0.30;;;;;;;;;;6067673;23;20072;-66
2022/12/28 06:09:50;;;;;;;1.87;0.30;;;;;;;;;;6062510;23;20109;-66
2022/12/28 06:12:18;;;;;;;2.13;0.20;;;;;;;;;;6068095;23;20110;-65
2022/12/28 06:14:45;;;;;;;2.28;0.30;;;;;;;;;;6067315;23;20105;-65
2022/12/28 06:17:13;;;;;;;3.22;0.20;;;;;;;;;;6072093;23;20019;-65
2022/12/28 06:19:41;;;;;;;3.38;0.45;;;;;;;;;;6063353;23;20101;-66
2022/12/28 06:22:08;;;;;;;2.33;0.20;;;;;;;;;;6064331;23;20018;-65
2022/12/28 06:24:36;;;;;;;1.90;0.40;;;;;;;;;;6069681;23;20046;-66
2022/12/28 06:27:05;;;;;;;2.70;0.57;;;;;;;;;;6064329;23;20093;-65
2022/12/28 06:29:32;;;;;;;3.33;0.30;;;;;;;;;;6073688;23;20390;-65
2022/12/28 06:32:00;;;;;;;2.85;0.30;;;;;;;;;;6062089;23;20469;-65
2022/12/28 06:34:28;;;;;;;2.03;0.30;;;;;;;;;;6063517;23;20404;-65
2022/12/28 06:36:56;;;;;;;2.28;0.32;;;;;;;;;;6061006;23;20404;-66
2022/12/28 06:39:24;;;;;;;3.03;0.30;;;;;;;;;;6069167;23;20026;-65
2022/12/28 06:41:52;;;;;;;8.25;0.40;;;;;;;;;;6064107;23;20525;-65
2022/12/28 06:44:21;;;;;;;2.25;0.30;;;;;;;;;;6072933;23;20010;-65
2022/12/28 06:46:48;;;;;;;2.43;0.30;;;;;;;;;;6065557;23;20344;-65
2022/12/28 06:49:16;;;;;;;2.75;0.30;;;;;;;;;;6065217;23;20018;-66
2022/12/28 06:51:43;;;;;;;2.08;0.30;;;;;;;;;;6071038;23;20109;-66
2022/12/28 06:54:11;;;;;;;4.32;0.30;;;;;;;;;;6065513;23;20018;-66
2022/12/28 06:56:43;;;;;;;2.42;0.30;;;;;;;;;;6071061;23;20042;-66
2022/12/28 06:59:10;;;;;;;2.60;0.20;;;;;;;;;;6076097;23;20660;-65
2022/12/28 07:01:43;;;;;;;2.90;0.20;;;;;;;;;;6063554;23;20022;-66
2022/12/28 07:04:11;;;;;;;4.22;0.30;;;;;;;;;;6069856;23;20025;-66
2022/12/28 07:06:39;;;;;;;1.83;0.20;;;;;;;;;;6042698;23;20086;-66
2022/12/28 07:09:08;;;;;;;3.33;0.20;;;;;;;;;;6073428;23;20010;-65
2022/12/28 07:11:36;;;;;;;1.97;0.30;;;;;;;;;;6059620;23;20614;-66
2022/12/28 07:14:05;;;;;;;3.53;0.30;;;;;;;;;;6069244;23;20089;-66
2022/12/28 07:16:32;;;;;;;4.60;0.45;;;;;;;;;;6044888;23;20414;-66
2022/12/28 07:19:00;;;;;;;5.28;0.35;;;;;;;;;;6039214;23;20018;-67
2022/12/28 07:21:29;;;;;;;3.83;0.40;;;;;;;;;;6072039;23;20106;-66
2022/12/28 07:23:57;;;;;;;3.13;0.60;;;;;;;;;;6062872;23;20105;-66
2022/12/28 07:26:25;;;;;;;2.10;0.38;;;;;;;;;;6076611;23;20089;-66
2022/12/28 07:28:54;;;;;;;3.70;0.43;;;;;;;;;;6056748;23;20527;-67
2022/12/28 07:31:22;;;;;;;3.45;0.30;;;;;;;;;;6073331;23;20018;-66
2022/12/28 07:33:51;;;;;;;4.13;0.40;;;;;;;;;;6063352;23;20021;-63
2022/12/28 07:36:21;;;;;;;4.07;0.40;;;;;;;;;;6072813;23;20502;-66
2022/12/28 07:38:49;;;;;;;5.18;0.63;;;;;;;;;;6059552;23;20093;-67
2022/12/28 07:41:17;;;;;;;4.30;0.20;;;;;;;;;;6074692;23;20480;-67
2022/12/28 07:43:45;;;;;;;2.25;0.22;;;;;;;;;;6061869;23;20022;-67
2022/12/28 07:46:13;;;;;;;1.85;0.38;;;;;;;;;;6071107;23;20070;-67
2022/12/28 07:48:42;;;;;;;2.37;0.30;;;;;;;;;;6063915;23;20415;-67
2022/12/28 07:51:10;;;;;;;2.83;0.30;;;;;;;;;;6070614;23;20464;-67
2022/12/28 07:53:39;;;;;;;3.53;0.30;;;;;;;;;;6062975;23;20018;-63
2022/12/28 07:56:07;;;;;;;1.45;0.20;;;;;;;;;;6048702;23;20046;-67
2022/12/28 07:58:35;;;;;;;5.13;0.50;;;;;;;;;;6064565;23;20397;-66
2022/12/28 08:01:03;;;;;;;4.10;0.30;;;;;;;;;;6069786;23;20023;-66
2022/12/28 08:03:32;;;;;;;2.30;0.30;;;;;;;;;;6066865;23;20069;-67
2022/12/28 08:06:10;;;;;;;4.30;0.50;;;;;;;;;;6076198;23;20050;-66
2022/12/28 08:08:40;;;;;;;3.63;0.30;;;;;;;;;;6071450;23;20042;-67
2022/12/28 08:11:09;;;;;;;2.60;0.30;;;;;;;;;;6063636;23;20073;-67
2022/12/28 08:13:38;;;;;;;4.57;0.33;;;;;;;;;;6067698;23;20441;-66
2022/12/28 08:16:06;;;;;;;3.03;0.40;;;;;;;;;;6069691;23;20014;-67
2022/12/28 08:18:34;;;;;;;3.85;0.30;;;;;;;;;;6070933;23;20046;-67
2022/12/28 08:21:02;;;;;;;3.65;0.40;;;;;;;;;;6065935;23;20449;-67
2022/12/28 08:23:30;;;;;;;3.05;0.50;;;;;;;;;;6072329;23;20053;-67
2022/12/28 08:26:05;;;;;;;2.67;0.50;;;;;;;;;;6062786;23;20445;-67
2022/12/28 08:28:36;;;;;;;3.53;0.40;;;;;;;;;;6069593;23;20050;-67
2022/12/28 08:31:04;;;;;;;3.72;0.43;;;;;;;;;;6075448;23;20046;-67
2022/12/28 08:33:32;;;;;;;3.05;0.38;;;;;;;;;;6062441;23;20015;-67
2022/12/28 08:36:00;;;;;;;3.40;0.32;;;;;;;;;;6069306;23;20105;-67
2022/12/28 08:38:27;;;;;;;5.13;0.53;;;;;;;;;;6064651;23;20053;-67
2022/12/28 08:40:55;;;;;;;3.55;0.40;;;;;;;;;;6071895;23;20367;-67
2022/12/28 08:43:26;;;;;;;2.10;0.30;;;;;;;;;;6053811;23;20349;-67
2022/12/28 08:45:58;;;;;;;3.38;0.40;;;;;;;;;;6069891;23;20442;-67
2022/12/28 08:48:26;;;;;;;4.18;0.40;;;;;;;;;;6071890;23;20053;-67
2022/12/28 08:50:54;;;;;;;6.37;0.73;;;;;;;;;;6064061;23;20082;-67
2022/12/28 08:53:23;;;;;;;3.78;0.20;;;;;;;;;;6070627;23;20109;-67
2022/12/28 08:55:53;;;;;;;4.93;0.50;;;;;;;;;;6069150;23;20101;-67
2022/12/28 08:58:20;;;;;;;4.18;0.60;;;;;;;;;;6065724;23;20249;-67
2022/12/28 09:00:49;;;;;;;6.22;0.80;;;;;;;;;;6070960;23;20097;-67
2022/12/28 09:03:17;;;;;;;3.43;0.67;;;;;;;;;;6064572;23;20097;-67
2022/12/28 09:05:44;;;;;;;4.28;0.40;;;;;;;;;;6046718;23;20109;-67
2022/12/28 09:08:16;;;;;;;6.10;0.70;;;;;;;;;;6062037;23;20526;-67
2022/12/28 09:10:43;;;;;;;4.63;0.95;;;;;;;;;;6047745;23;20256;-67
2022/12/28 09:13:11;;;;;;;7.07;0.90;;;;;;;;;;6048030;23;20060;-62
2022/12/28 09:15:39;;;;;;;3.67;0.60;;;;;;;;;;6077197;23;20107;-67
2022/12/28 09:18:11;;;;;;;7.10;0.77;;;;;;;;;;6070182;23;20021;-67
2022/12/28 09:20:39;;;;;;;3.75;0.50;;;;;;;;;;6061724;23;20110;-67
2022/12/28 09:23:14;;;;;;;7.40;0.70;;;;;;;;;;6073307;23;20059;-67
2022/12/28 09:25:41;;;;;;;6.22;0.70;;;;;;;;;;6030468;23;20026;-67
2022/12/28 09:28:09;;;;;;;3.63;0.50;;;;;;;;;;6077843;23;20014;-67
2022/12/28 09:30:37;;;;;;;3.92;0.50;;;;;;;;;;6060213;23;20094;-67
2022/12/28 09:35:50;;;;;;;6.03;0.40;;;;;;;;;;6065509;23;20018;-66
2022/12/28 09:38:18;;;;;;;3.30;0.40;;;;;;;;;;6063996;23;20050;-67
2022/12/28 09:40:45;;;;;;;3.90;0.30;;;;;;;;;;6073501;23;20064;-67
2022/12/28 09:43:13;;;;;;;5.15;0.45;;;;;;;;;;6064967;23;20073;-67
2022/12/28 09:45:42;;;;;;;3.67;0.40;;;;;;;;;;6037948;23;20014;-67
2022/12/28 09:48:12;;;;;;;4.78;0.50;;;;;;;;;;6066630;23;20614;-67
2022/12/28 09:50:40;;;;;;;4.78;0.70;;;;;;;;;;6069084;23;20069;-68
2022/12/28 09:53:18;;;;;;;4.60;0.50;;;;;;;;;;6066540;23;20097;-65
2022/12/28 09:55:52;;;;;;;5.43;0.73;;;;;;;;;;6066415;23;20015;-68
2022/12/28 09:58:23;;;;;;;3.38;0.70;;;;;;;;;;6066508;23;20192;-68
2022/12/28 10:00:54;;;;;;;6.78;0.70;;;;;;;;;;6065363;23;20070;-67
2022/12/28 10:03:23;;;;;;;7.00;0.60;;;;;;;;;;6067966;23;20022;-67
2022/12/28 10:05:51;;;;;;;7.47;1.00;;;;;;;;;;6073296;23;20022;-68
2022/12/28 10:08:21;;;;;;;3.05;0.50;;;;;;;;;;6059335;23;20022;-68
2022/12/28 10:10:49;;;;;;;7.47;0.60;;;;;;;;;;6072304;23;20366;-68
2022/12/28 10:13:19;;;;;;;4.13;0.60;;;;;;;;;;6056665;23;20362;-67
2022/12/28 10:16:11;;;;;;;5.95;0.57;;;;;;;;;;6043636;23;20110;-67
2022/12/28 10:18:39;;;;;;;5.97;0.80;;;;;;;;;;6074132;23;20454;-67
2022/12/28 10:21:07;;;;;;;8.63;0.65;;;;;;;;;;6057749;23;20042;-68
2022/12/28 10:23:36;;;;;;;4.60;0.50;;;;;;;;;;6071827;23;20097;-68
2022/12/28 10:26:24;;;;;;;2.72;0.45;;;;;;;;;;6069219;23;20022;-68
2022/12/28 10:28:53;;;;;;;11.80;0.60;;;;;;;;;;6036063;23;20963;-67
2022/12/28 10:31:31;;;;;;;4.50;0.70;;;;;;;;;;6072102;23;20018;-66
2022/12/28 10:33:58;;;;;;;4.07;0.50;;;;;;;;;;6062122;23;20042;-67
2022/12/28 10:36:32;;;;;;;7.95;0.50;;;;;;;;;;6070675;23;20358;-66
2022/12/28 10:39:04;;;;;;;5.65;0.43;;;;;;;;;;6064326;23;20014;-67
2022/12/28 10:41:33;;;;;;;7.28;0.50;;;;;;;;;;6061053;23;20086;-64
2022/12/28 10:44:11;;;;;;;4.03;0.60;;;;;;;;;;6070882;23;20026;-67
2022/12/28 10:47:02;;;;;;;3.15;0.50;;;;;;;;;;6064404;23;20033;-66
2022/12/28 10:49:32;;;;;;;4.88;0.70;;;;;;;;;;6067629;23;20346;-67
2022/12/28 10:52:02;;;;;;;5.80;0.57;;;;;;;;;;6064698;23;20097;-67
2022/12/28 10:54:33;;;;;;;8.77;0.73;;;;;;;;;;6062760;23;20262;-66
2022/12/28 10:57:01;;;;;;;4.83;0.60;;;;;;;;;;6066822;23;20081;-65
2022/12/28 10:59:29;;;;;;;9.38;0.68;;;;;;;;;;6040711;23;20403;-66
2022/12/28 11:02:12;;;;;;;4.88;0.50;;;;;;;;;;6067110;23;20042;-66
2022/12/28 11:04:52;;;;;;;4.07;0.50;;;;;;;;;;6066851;23;20026;-66
2022/12/28 11:07:27;;;;;;;3.25;0.40;;;;;;;;;;6069632;23;20053;-66
2022/12/28 11:10:13;;;;;;;5.63;0.80;;;;;;;;;;6058123;23;20014;-66
2022/12/28 11:12:41;;;;;;;4.50;0.68;;;;;;;;;;6068830;23;20019;-66
2022/12/28 11:15:13;;;;;;;4.95;0.55;;;;;;;;;;6063816;23;20049;-67
2022/12/28 11:17:41;;;;;;;6.40;0.68;;;;;;;;;;6065877;23;20085;-67
2022/12/28 11:20:14;;;;;;;6.15;0.50;;;;;;;;;;6069287;23;20014;-67
2022/12/28 11:22:44;;;;;;;2.97;0.40;;;;;;;;;;6061749;23;20014;-66
2022/12/28 11:25:14;;;;;;;4.40;0.50;;;;;;;;;;6073962;23;20354;-67
2022/12/28 11:27:42;;;;;;;4.18;0.30;;;;;;;;;;6063467;23;20066;-67
2022/12/28 11:30:13;;;;;;;3.15;0.30;;;;;;;;;;6063947;23;20097;-66
2022/12/28 11:32:48;;;;;;;4.93;0.40;;;;;;;;;;6069280;23;20383;-66
2022/12/28 11:35:16;;;;;;;4.80;0.30;;;;;;;;;;6065171;23;20023;-67
2022/12/28 11:37:54;;;;;;;5.03;0.30;;;;;;;;;;6067867;23;20014;-65
2022/12/28 11:40:52;;;;;;;3.63;0.40;;;;;;;;;;6039387;23;20122;-66
2022/12/28 11:43:39;;;;;;;3.67;0.38;;;;;;;;;;5946790;24;20530;-66
2022/12/28 11:46:07;;;;;;;3.72;0.63;;;;;;;;;;6057954;23;20406;-65
2022/12/28 11:48:55;;;;;;;2.20;0.30;;;;;;;;;;6069015;23;20018;-65
2022/12/28 11:51:24;;;;;;;4.72;0.32;;;;;;;;;;6029365;23;20481;-66
2022/12/28 11:53:53;;;;;;;2.90;0.40;;;;;;;;;;6064945;23;20023;-62
2022/12/28 11:56:22;;;;;;;4.47;0.40;;;;;;;;;;6071441;23;20089;-65
2022/12/28 11:59:05;;;;;;;3.13;0.50;;;;;;;;;;6070237;23;20052;-64
2022/12/28 12:01:43;;;;;;;3.23;0.50;;;;;;;;;;6065217;23;20023;-65
2022/12/28 12:04:18;;;;;;;6.85;0.77;;;;;;;;;;6068725;23;20386;-64
2022/12/28 12:07:04;;;;;;;4.45;0.40;;;;;;;;;;6068540;23;20243;-65
2022/12/28 12:09:41;;;;;;;2.97;0.40;;;;;;;;;;6064238;23;20023;-61
2022/12/28 12:12:28;;;;;;;2.17;0.40;;;;;;;;;;6041901;23;20101;-64
2022/12/28 12:14:58;;;;;;;2.83;0.30;;;;;;;;;;6065323;23;20053;-65
2022/12/28 12:17:31;;;;;;;1.83;0.30;;;;;;;;;;6063260;23;20469;-64
2022/12/28 12:20:08;;;;;;;4.28;0.40;;;;;;;;;;6067367;23;20025;-65
2022/12/28 12:22:41;;;;;;;2.50;0.30;;;;;;;;;;6061430;23;20413;-65
2022/12/28 12:25:14;;;;;;;3.88;0.30;;;;;;;;;;6070813;23;20073;-64
2022/12/28 12:27:43;;;;;;;3.00;0.37;;;;;;;;;;6064729;23;20056;-65
2022/12/28 12:30:15;;;;;;;2.42;0.40;;;;;;;;;;6065626;23;20480;-65
2022/12/28 12:32:44;;;;;;;1.30;0.20;;;;;;;;;;6076027;23;20069;-64
2022/12/28 12:35:14;;;;;;;3.53;0.40;;;;;;;;;;6063867;23;20093;-65
2022/12/28 12:37:46;;;;;;;4.57;0.50;;;;;;;;;;6068150;23;20097;-65
2022/12/28 12:40:32;;;;;;;1.90;0.30;;;;;;;;;;6061669;23;20011;-64
2022/12/28 12:43:12;;;;;;;2.10;0.35;;;;;;;;;;6070285;23;20014;-64
2022/12/28 12:45:46;;;;;;;3.13;0.35;;;;;;;;;;6068184;23;20078;-65
2022/12/28 12:48:20;;;;;;;2.40;0.30;;;;;;;;;;6070631;23;20014;-65
2022/12/28 12:51:12;;;;;;;2.15;0.30;;;;;;;;;;6039373;23;20045;-65
2022/12/28 12:53:46;;;;;;;3.73;0.30;;;;;;;;;;6034164;23;20082;-64
2022/12/28 12:56:23;;;;;;;2.70;0.20;;;;;;;;;;6044779;23;20073;-65
2022/12/28 12:58:56;;;;;;;2.17;0.25;;;;;;;;;;6066564;23;20253;-64
2022/12/28 13:01:36;;;;;;;1.85;0.20;;;;;;;;;;6071637;23;20085;-65
2022/12/28 13:04:07;;;;;;;2.10;0.30;;;;;;;;;;6074095;23;20046;-65
2022/12/28 13:06:35;;;;;;;2.13;0.30;;;;;;;;;;6040194;23;20457;-64
2022/12/28 13:09:05;;;;;;;1.23;0.20;;;;;;;;;;6073152;23;20046;-65
2022/12/28 13:11:36;;;;;;;2.55;0.30;;;;;;;;;;6059940;23;20047;-64
2022/12/28 13:14:05;;;;;;;1.98;0.30;;;;;;;;;;6069136;23;20010;-65
2022/12/28 13:16:34;;;;;;;2.75;0.30;;;;;;;;;;6065194;23;20053;-65
2022/12/28 13:19:03;;;;;;;2.03;0.40;;;;;;;;;;6073597;23;20045;-65
2022/12/28 13:21:39;;;;;;;1.67;0.38;;;;;;;;;;6053032;23;20724;-65
2022/12/28 13:24:18;;;;;;;2.17;0.35;;;;;;;;;;6044764;23;20018;-65
2022/12/28 13:26:45;;;;;;;1.80;0.30;;;;;;;;;;6069715;23;20021;-64
2022/12/28 13:29:15;;;;;;;1.80;0.30;;;;;;;;;;6062894;23;20018;-65
2022/12/28 13:31:48;;;;;;;2.27;0.30;;;;;;;;;;6074445;23;20042;-64
2022/12/28 13:34:17;;;;;;;1.95;0.30;;;;;;;;;;6064300;23;20014;-65
2022/12/28 13:36:48;;;;;;;1.98;0.30;;;;;;;;;;6040648;23;20018;-64
2022/12/28 13:39:17;;;;;;;1.65;0.20;;;;;;;;;;6069055;23;20021;-65
2022/12/28 13:41:48;;;;;;;4.07;0.57;;;;;;;;;;6061463;23;20772;-64
2022/12/28 13:44:21;;;;;;;3.50;0.40;;;;;;;;;;6073631;23;20018;-65
2022/12/28 13:46:52;;;;;;;1.50;0.25;;;;;;;;;;6065595;23;20018;-64
2022/12/28 13:49:21;;;;;;;4.70;0.57;;;;;;;;;;6063287;23;20042;-64
2022/12/28 13:52:00;;;;;;;2.75;0.77;;;;;;;;;;6072036;23;20046;-64
2022/12/28 13:54:28;;;;;;;2.08;0.30;;;;;;;;;;6071978;23;20062;-61
2022/12/28 13:56:56;;;;;;;3.40;0.40;;;;;;;;;;6064696;23;20093;-64
2022/12/28 13:59:47;;;;;;;2.38;0.50;;;;;;;;;;6071089;23;20015;-65
2022/12/28 14:02:18;;;;;;;2.63;0.40;;;;;;;;;;6062640;23;20018;-65
2022/12/28 14:04:47;;;;;;;2.47;0.30;;;;;;;;;;6043235;23;20026;-64
2022/12/28 14:07:21;;;;;;;3.63;0.40;;;;;;;;;;6069892;23;20066;-64
2022/12/28 14:09:49;;;;;;;2.33;0.30;;;;;;;;;;6062687;23;20018;-65
2022/12/28 14:12:17;;;;;;;3.33;0.40;;;;;;;;;;6069802;23;20054;-64
2022/12/28 14:14:45;;;;;;;2.42;0.40;;;;;;;;;;6065561;23;20052;-64
2022/12/28 14:17:13;;;;;;;3.72;0.70;;;;;;;;;;6070771;23;20026;-64
2022/12/28 14:19:42;;;;;;;3.45;0.50;;;;;;;;;;6066128;23;20070;-65
2022/12/28 14:22:27;;;;;;;3.43;0.60;;;;;;;;;;6063304;23;20316;-65
2022/12/28 14:25:01;;;;;;;4.18;0.40;;;;;;;;;;6068180;23;20022;-65
2022/12/28 14:27:30;;;;;;;4.80;0.52;;;;;;;;;;6062012;23;20042;-64
2022/12/28 14:29:58;;;;;;;2.92;0.55;;;;;;;;;;6073190;23;20046;-64
2022/12/28 14:32:25;;;;;;;3.38;0.65;;;;;;;;;;6051126;23;20438;-64
2022/12/28 14:35:01;;;;;;;2.93;0.40;;;;;;;;;;6072334;23;20022;-64
2022/12/28 14:37:31;;;;;;;3.35;0.70;;;;;;;;;;6069916;23;20454;-64
2022/12/28 14:40:00;;;;;;;3.42;0.60;;;;;;;;;;6060493;23;20015;-64
2022/12/28 14:42:29;;;;;;;2.60;0.32;;;;;;;;;;6070025;23;20325;-65
2022/12/28 14:44:57;;;;;;;1.90;0.32;;;;;;;;;;6064357;23;20527;-65
2022/12/28 14:47:35;;;;;;;2.90;0.30;;;;;;;;;;6068145;23;20450;-66
2022/12/28 14:50:18;;;;;;;3.83;0.45;;;;;;;;;;6070495;23;20041;-66
2022/12/28 14:52:46;;;;;;;3.05;0.30;;;;;;;;;;6072990;23;20018;-66
2022/12/28 14:55:25;;;;;;;1.77;0.30;;;;;;;;;;6062380;23;20046;-66
2022/12/28 14:57:54;;;;;;;3.90;0.50;;;;;;;;;;6067982;23;20015;-64
2022/12/28 15:00:23;;;;;;;3.70;0.50;;;;;;;;;;6063389;23;20014;-65
2022/12/28 15:02:50;;;;;;;2.70;0.40;;;;;;;;;;6073274;23;20022;-65
2022/12/28 15:05:37;;;;;;;2.22;0.30;;;;;;;;;;6067068;23;20026;-65
2022/12/28 15:08:05;;;;;;;1.95;0.40;;;;;;;;;;6060382;23;20397;-64
2022/12/28 15:10:35;;;;;;;2.25;0.40;;;;;;;;;;6072570;23;20019;-66
2022/12/28 15:13:02;;;;;;;4.33;0.40;;;;;;;;;;6060158;23;20014;-64
2022/12/28 15:15:31;;;;;;;2.30;0.60;;;;;;;;;;6078578;23;20020;-66
2022/12/28 15:17:59;;;;;;;6.10;0.65;;;;;;;;;;6066988;23;20097;-66
2022/12/28 15:20:26;;;;;;;6.65;0.40;;;;;;;;;;6071283;23;20018;-66
2022/12/28 15:22:58;;;;;;;2.60;0.40;;;;;;;;;;6070342;23;20346;-66
2022/12/28 15:25:26;;;;;;;3.87;0.60;;;;;;;;;;6063524;23;20097;-64
2022/12/28 15:27:53;;;;;;;2.42;0.35;;;;;;;;;;6073356;23;20037;-64
2022/12/28 15:30:21;;;;;;;5.00;0.63;;;;;;;;;;6065526;23;20071;-65